sensor_id;sensor_type;location;lat;lon;timestamp;temperature;humidity
69543;SHT31;56762;49.494;11.768;2022-07-23T00:01:05;20.04;64.07
69543;SHT31;56762;49.494;11.768;2022-07-23T00:03:33;20.02;64.42
69543;SHT31;56762;49.494;11.768;2022-07-23T00:06:01;20.00;64.83
69543;SHT31;56762;49.494;11.768;2022-07-23T00:08:36;19.98;65.25
69543;SHT31;56762;49.494;11.768;2022-07-23T00:11:05;19.95;64.90
69543;SHT31;56762;49.494;11.768;2022-07-23T00:13:33;19.95;64.33
69543;SHT31;56762;49.494;11.768;2022-07-23T00:16:01;19.96;64.23
69543;SHT31;56762;49.494;11.768;2022-07-23T00:18:29;20.12;63.41
69543;SHT31;56762;49.494;11.768;2022-07-23T00:20:57;20.19;62.27
69543;SHT31;56762;49.494;11.768;2022-07-23T00:23:25;20.18;63.33
69543;SHT31;56762;49.494;11.768;2022-07-23T00:25:55;20.18;66.14
69543;SHT31;56762;49.494;11.768;2022-07-23T00:28:23;20.09;68.45
69543;SHT31;56762;49.494;11.768;2022-07-23T00:30:51;19.98;70.33
69543;SHT31;56762;49.494;11.768;2022-07-23T00:33:19;19.91;72.20
69543;SHT31;56762;49.494;11.768;2022-07-23T00:35:46;19.86;73.11
69543;SHT31;56762;49.494;11.768;2022-07-23T00:38:14;19.77;74.12
69543;SHT31;56762;49.494;11.768;2022-07-23T00:40:42;19.65;74.36
69543;SHT31;56762;49.494;11.768;2022-07-23T00:43:11;19.62;72.66
69543;SHT31;56762;49.494;11.768;2022-07-23T00:45:39;19.57;73.67
69543;SHT31;56762;49.494;11.768;2022-07-23T00:48:08;19.48;74.51
69543;SHT31;56762;49.494;11.768;2022-07-23T00:50:36;19.47;73.97
69543;SHT31;56762;49.494;11.768;2022-07-23T00:53:04;19.44;74.61
69543;SHT31;56762;49.494;11.768;2022-07-23T00:55:33;19.40;76.02
69543;SHT31;56762;49.494;11.768;2022-07-23T00:58:01;19.38;76.63
69543;SHT31;56762;49.494;11.768;2022-07-23T01:00:34;19.35;75.84
69543;SHT31;56762;49.494;11.768;2022-07-23T01:03:02;19.31;75.97
69543;SHT31;56762;49.494;11.768;2022-07-23T01:05:30;19.30;76.03
69543;SHT31;56762;49.494;11.768;2022-07-23T01:08:00;19.26;75.93
69543;SHT31;56762;49.494;11.768;2022-07-23T01:10:28;19.21;75.98
69543;SHT31;56762;49.494;11.768;2022-07-23T01:12:59;19.19;77.29
69543;SHT31;56762;49.494;11.768;2022-07-23T01:15:28;19.16;78.01
69543;SHT31;56762;49.494;11.768;2022-07-23T01:17:57;19.19;76.85
69543;SHT31;56762;49.494;11.768;2022-07-23T01:20:25;19.19;76.69
69543;SHT31;56762;49.494;11.768;2022-07-23T01:22:55;19.23;76.74
69543;SHT31;56762;49.494;11.768;2022-07-23T01:25:23;19.24;77.35
69543;SHT31;56762;49.494;11.768;2022-07-23T01:27:52;19.28;76.35
69543;SHT31;56762;49.494;11.768;2022-07-23T01:30:21;19.28;75.22
69543;SHT31;56762;49.494;11.768;2022-07-23T01:32:49;19.28;75.19
69543;SHT31;56762;49.494;11.768;2022-07-23T01:35:17;19.27;75.30
69543;SHT31;56762;49.494;11.768;2022-07-23T01:37:48;19.27;76.23
69543;SHT31;56762;49.494;11.768;2022-07-23T01:40:17;19.30;74.12
69543;SHT31;56762;49.494;11.768;2022-07-23T01:42:48;19.31;74.20
69543;SHT31;56762;49.494;11.768;2022-07-23T01:45:16;19.30;74.90
69543;SHT31;56762;49.494;11.768;2022-07-23T01:47:44;19.30;75.24
69543;SHT31;56762;49.494;11.768;2022-07-23T01:50:12;19.31;74.52
69543;SHT31;56762;49.494;11.768;2022-07-23T01:52:40;19.30;75.33
69543;SHT31;56762;49.494;11.768;2022-07-23T01:55:08;19.30;76.02
69543;SHT31;56762;49.494;11.768;2022-07-23T01:57:45;19.28;76.05
69543;SHT31;56762;49.494;11.768;2022-07-23T02:00:14;19.28;76.09
69543;SHT31;56762;49.494;11.768;2022-07-23T02:02:42;19.19;76.37
69543;SHT31;56762;49.494;11.768;2022-07-23T02:05:09;19.17;76.15
69543;SHT31;56762;49.494;11.768;2022-07-23T02:07:37;19.16;76.47
69543;SHT31;56762;49.494;11.768;2022-07-23T02:10:06;19.16;76.77
69543;SHT31;56762;49.494;11.768;2022-07-23T02:12:34;19.14;77.32
69543;SHT31;56762;49.494;11.768;2022-07-23T02:15:04;19.13;77.25
69543;SHT31;56762;49.494;11.768;2022-07-23T02:17:36;19.11;77.87
69543;SHT31;56762;49.494;11.768;2022-07-23T02:20:04;19.10;77.27
69543;SHT31;56762;49.494;11.768;2022-07-23T02:22:33;19.13;77.27
69543;SHT31;56762;49.494;11.768;2022-07-23T02:25:01;19.14;77.31
69543;SHT31;56762;49.494;11.768;2022-07-23T02:27:29;19.14;77.66
69543;SHT31;56762;49.494;11.768;2022-07-23T02:29:57;19.19;77.55
69543;SHT31;56762;49.494;11.768;2022-07-23T02:32:26;19.21;77.03
69543;SHT31;56762;49.494;11.768;2022-07-23T02:34:54;19.24;76.24
69543;SHT31;56762;49.494;11.768;2022-07-23T02:37:22;19.30;74.59
69543;SHT31;56762;49.494;11.768;2022-07-23T02:39:49;19.30;74.38
69543;SHT31;56762;49.494;11.768;2022-07-23T02:42:17;19.30;73.01
69543;SHT31;56762;49.494;11.768;2022-07-23T02:44:45;19.31;72.53
69543;SHT31;56762;49.494;11.768;2022-07-23T02:47:13;19.32;72.50
69543;SHT31;56762;49.494;11.768;2022-07-23T02:49:42;19.34;72.32
69543;SHT31;56762;49.494;11.768;2022-07-23T02:52:11;19.35;72.22
69543;SHT31;56762;49.494;11.768;2022-07-23T02:54:39;19.38;72.25
69543;SHT31;56762;49.494;11.768;2022-07-23T02:57:07;19.37;71.79
69543;SHT31;56762;49.494;11.768;2022-07-23T02:59:34;19.37;71.79
69543;SHT31;56762;49.494;11.768;2022-07-23T03:02:03;19.38;71.98
69543;SHT31;56762;49.494;11.768;2022-07-23T03:04:30;19.38;71.85
69543;SHT31;56762;49.494;11.768;2022-07-23T03:07:00;19.34;71.85
69543;SHT31;56762;49.494;11.768;2022-07-23T03:09:28;19.31;72.27
69543;SHT31;56762;49.494;11.768;2022-07-23T03:11:57;19.30;72.76
69543;SHT31;56762;49.494;11.768;2022-07-23T03:14:25;19.31;72.98
69543;SHT31;56762;49.494;11.768;2022-07-23T03:16:54;19.30;73.33
69543;SHT31;56762;49.494;11.768;2022-07-23T03:19:23;19.30;73.61
69543;SHT31;56762;49.494;11.768;2022-07-23T03:21:51;19.30;74.27
69543;SHT31;56762;49.494;11.768;2022-07-23T03:24:20;19.27;74.35
69543;SHT31;56762;49.494;11.768;2022-07-23T03:26:50;19.27;74.80
69543;SHT31;56762;49.494;11.768;2022-07-23T03:29:18;19.27;74.83
69543;SHT31;56762;49.494;11.768;2022-07-23T03:31:46;19.24;75.11
69543;SHT31;56762;49.494;11.768;2022-07-23T03:34:14;19.19;75.54
69543;SHT31;56762;49.494;11.768;2022-07-23T03:36:45;19.20;75.77
69543;SHT31;56762;49.494;11.768;2022-07-23T03:39:12;19.16;76.21
69543;SHT31;56762;49.494;11.768;2022-07-23T03:41:42;19.16;76.30
69543;SHT31;56762;49.494;11.768;2022-07-23T03:44:10;19.16;76.36
69543;SHT31;56762;49.494;11.768;2022-07-23T03:46:38;19.17;76.32
69543;SHT31;56762;49.494;11.768;2022-07-23T03:49:06;19.13;76.82
69543;SHT31;56762;49.494;11.768;2022-07-23T03:51:34;19.10;76.83
69543;SHT31;56762;49.494;11.768;2022-07-23T03:54:02;19.07;77.05
69543;SHT31;56762;49.494;11.768;2022-07-23T03:56:30;19.04;77.27
69543;SHT31;56762;49.494;11.768;2022-07-23T03:58:59;19.07;77.33
69543;SHT31;56762;49.494;11.768;2022-07-23T04:01:27;19.09;77.62
69543;SHT31;56762;49.494;11.768;2022-07-23T04:03:55;19.07;77.17
69543;SHT31;56762;49.494;11.768;2022-07-23T04:06:23;19.06;77.09
69543;SHT31;56762;49.494;11.768;2022-07-23T04:08:51;19.07;76.63
69543;SHT31;56762;49.494;11.768;2022-07-23T04:11:19;19.02;76.63
69543;SHT31;56762;49.494;11.768;2022-07-23T04:13:47;19.00;76.68
69543;SHT31;56762;49.494;11.768;2022-07-23T04:16:16;19.02;76.60
69543;SHT31;56762;49.494;11.768;2022-07-23T04:18:44;18.99;76.59
69543;SHT31;56762;49.494;11.768;2022-07-23T04:21:12;19.00;76.49
69543;SHT31;56762;49.494;11.768;2022-07-23T04:23:40;19.00;76.57
69543;SHT31;56762;49.494;11.768;2022-07-23T04:26:09;19.00;76.87
69543;SHT31;56762;49.494;11.768;2022-07-23T04:28:43;19.00;77.42
69543;SHT31;56762;49.494;11.768;2022-07-23T04:31:11;19.00;77.34
69543;SHT31;56762;49.494;11.768;2022-07-23T04:33:40;19.02;77.73
69543;SHT31;56762;49.494;11.768;2022-07-23T04:36:08;18.99;77.96
69543;SHT31;56762;49.494;11.768;2022-07-23T04:38:36;18.98;77.94
69543;SHT31;56762;49.494;11.768;2022-07-23T04:41:04;18.98;78.18
69543;SHT31;56762;49.494;11.768;2022-07-23T04:43:32;18.99;78.02
69543;SHT31;56762;49.494;11.768;2022-07-23T04:46:00;19.00;78.13
69543;SHT31;56762;49.494;11.768;2022-07-23T04:48:36;18.99;78.10
69543;SHT31;56762;49.494;11.768;2022-07-23T04:51:06;19.00;78.19
69543;SHT31;56762;49.494;11.768;2022-07-23T04:53:34;19.04;78.77
69543;SHT31;56762;49.494;11.768;2022-07-23T04:56:02;19.06;79.37
69543;SHT31;56762;49.494;11.768;2022-07-23T04:58:29;19.09;79.03
69543;SHT31;56762;49.494;11.768;2022-07-23T05:00:58;19.14;79.30
69543;SHT31;56762;49.494;11.768;2022-07-23T05:03:26;19.17;79.01
69543;SHT31;56762;49.494;11.768;2022-07-23T05:05:54;19.21;79.01
69543;SHT31;56762;49.494;11.768;2022-07-23T05:08:24;19.26;78.80
69543;SHT31;56762;49.494;11.768;2022-07-23T05:10:52;19.30;78.36
69543;SHT31;56762;49.494;11.768;2022-07-23T05:13:20;19.35;78.10
69543;SHT31;56762;49.494;11.768;2022-07-23T05:15:48;19.41;77.98
69543;SHT31;56762;49.494;11.768;2022-07-23T05:18:16;19.51;78.22
69543;SHT31;56762;49.494;11.768;2022-07-23T05:20:45;19.60;78.07
69543;SHT31;56762;49.494;11.768;2022-07-23T05:23:13;19.62;77.33
69543;SHT31;56762;49.494;11.768;2022-07-23T05:25:43;19.68;76.99
69543;SHT31;56762;49.494;11.768;2022-07-23T05:28:10;19.71;77.16
69543;SHT31;56762;49.494;11.768;2022-07-23T05:30:38;19.81;77.15
69543;SHT31;56762;49.494;11.768;2022-07-23T05:33:06;19.86;77.24
69543;SHT31;56762;49.494;11.768;2022-07-23T05:35:35;19.95;77.55
69543;SHT31;56762;49.494;11.768;2022-07-23T05:38:04;19.96;76.95
69543;SHT31;56762;49.494;11.768;2022-07-23T05:40:31;20.08;76.50
69543;SHT31;56762;49.494;11.768;2022-07-23T05:43:01;20.16;75.78
69543;SHT31;56762;49.494;11.768;2022-07-23T05:45:28;20.26;75.13
69543;SHT31;56762;49.494;11.768;2022-07-23T05:47:56;20.41;74.66
69543;SHT31;56762;49.494;11.768;2022-07-23T05:50:24;20.54;74.30
69543;SHT31;56762;49.494;11.768;2022-07-23T05:52:52;20.64;74.05
69543;SHT31;56762;49.494;11.768;2022-07-23T05:55:19;20.77;74.19
69543;SHT31;56762;49.494;11.768;2022-07-23T05:57:47;20.81;74.99
69543;SHT31;56762;49.494;11.768;2022-07-23T06:00:17;20.83;74.56
69543;SHT31;56762;49.494;11.768;2022-07-23T06:02:44;20.92;74.54
69543;SHT31;56762;49.494;11.768;2022-07-23T06:05:20;21.04;71.74
69543;SHT31;56762;49.494;11.768;2022-07-23T06:07:48;21.17;70.34
69543;SHT31;56762;49.494;11.768;2022-07-23T06:10:16;21.32;69.39
69543;SHT31;56762;49.494;11.768;2022-07-23T06:12:44;21.45;69.17
69543;SHT31;56762;49.494;11.768;2022-07-23T06:15:12;21.62;67.32
69543;SHT31;56762;49.494;11.768;2022-07-23T06:17:41;21.80;66.59
69543;SHT31;56762;49.494;11.768;2022-07-23T06:20:10;21.97;65.25
69543;SHT31;56762;49.494;11.768;2022-07-23T06:22:38;22.20;63.71
69543;SHT31;56762;49.494;11.768;2022-07-23T06:25:06;22.41;61.86
69543;SHT31;56762;49.494;11.768;2022-07-23T06:27:45;22.57;61.38
69543;SHT31;56762;49.494;11.768;2022-07-23T06:30:13;22.78;60.64
69543;SHT31;56762;49.494;11.768;2022-07-23T06:32:45;23.06;58.06
69543;SHT31;56762;49.494;11.768;2022-07-23T06:35:13;23.24;58.05
69543;SHT31;56762;49.494;11.768;2022-07-23T06:37:42;23.45;57.56
69543;SHT31;56762;49.494;11.768;2022-07-23T06:40:12;23.59;56.81
69543;SHT31;56762;49.494;11.768;2022-07-23T06:42:40;23.67;56.75
69543;SHT31;56762;49.494;11.768;2022-07-23T06:45:08;23.87;55.54
69543;SHT31;56762;49.494;11.768;2022-07-23T06:47:36;23.96;55.23
69543;SHT31;56762;49.494;11.768;2022-07-23T06:50:07;24.08;54.45
69543;SHT31;56762;49.494;11.768;2022-07-23T06:52:35;24.14;54.79
69543;SHT31;56762;49.494;11.768;2022-07-23T06:55:08;24.24;54.05
69543;SHT31;56762;49.494;11.768;2022-07-23T06:57:36;24.31;54.14
69543;SHT31;56762;49.494;11.768;2022-07-23T07:00:05;24.35;53.84
69543;SHT31;56762;49.494;11.768;2022-07-23T07:02:33;24.40;54.01
69543;SHT31;56762;49.494;11.768;2022-07-23T07:05:01;24.49;53.86
69543;SHT31;56762;49.494;11.768;2022-07-23T07:07:33;24.60;53.07
69543;SHT31;56762;49.494;11.768;2022-07-23T07:10:02;24.59;53.79
69543;SHT31;56762;49.494;11.768;2022-07-23T07:12:31;24.68;53.35
69543;SHT31;56762;49.494;11.768;2022-07-23T07:15:00;24.77;52.27
69543;SHT31;56762;49.494;11.768;2022-07-23T07:17:28;24.86;52.14
69543;SHT31;56762;49.494;11.768;2022-07-23T07:19:55;24.80;52.98
69543;SHT31;56762;49.494;11.768;2022-07-23T07:22:23;24.76;53.54
69543;SHT31;56762;49.494;11.768;2022-07-23T07:24:53;24.79;53.69
69543;SHT31;56762;49.494;11.768;2022-07-23T07:27:21;24.90;52.67
69543;SHT31;56762;49.494;11.768;2022-07-23T07:29:49;24.91;52.81
69543;SHT31;56762;49.494;11.768;2022-07-23T07:32:17;24.93;53.02
69543;SHT31;56762;49.494;11.768;2022-07-23T07:35:05;24.82;53.40
69543;SHT31;56762;49.494;11.768;2022-07-23T07:37:35;24.73;54.03
69543;SHT31;56762;49.494;11.768;2022-07-23T07:40:05;24.60;54.35
69543;SHT31;56762;49.494;11.768;2022-07-23T07:42:33;24.51;54.84
69543;SHT31;56762;49.494;11.768;2022-07-23T07:45:01;24.42;55.01
69543;SHT31;56762;49.494;11.768;2022-07-23T07:47:29;24.42;55.35
69543;SHT31;56762;49.494;11.768;2022-07-23T07:50:01;24.40;55.49
69543;SHT31;56762;49.494;11.768;2022-07-23T07:52:29;24.36;56.06
69543;SHT31;56762;49.494;11.768;2022-07-23T07:54:57;24.36;56.06
69543;SHT31;56762;49.494;11.768;2022-07-23T07:57:26;24.38;56.05
69543;SHT31;56762;49.494;11.768;2022-07-23T07:59:57;24.36;56.52
69543;SHT31;56762;49.494;11.768;2022-07-23T08:02:39;24.52;56.42
69543;SHT31;56762;49.494;11.768;2022-07-23T08:05:08;24.60;56.49
69543;SHT31;56762;49.494;11.768;2022-07-23T08:07:37;24.62;56.18
69543;SHT31;56762;49.494;11.768;2022-07-23T08:10:07;24.65;56.79
69543;SHT31;56762;49.494;11.768;2022-07-23T08:12:42;24.69;56.21
69543;SHT31;56762;49.494;11.768;2022-07-23T08:15:12;24.66;56.31
69543;SHT31;56762;49.494;11.768;2022-07-23T08:17:41;24.77;55.51
69543;SHT31;56762;49.494;11.768;2022-07-23T08:20:12;24.75;55.64
69543;SHT31;56762;49.494;11.768;2022-07-23T08:22:49;24.68;56.28
69543;SHT31;56762;49.494;11.768;2022-07-23T08:25:20;24.65;56.03
69543;SHT31;56762;49.494;11.768;2022-07-23T08:27:51;24.69;55.09
69543;SHT31;56762;49.494;11.768;2022-07-23T08:30:20;24.79;54.47
69543;SHT31;56762;49.494;11.768;2022-07-23T08:32:53;24.82;54.33
69543;SHT31;56762;49.494;11.768;2022-07-23T08:35:25;24.77;54.46
69543;SHT31;56762;49.494;11.768;2022-07-23T08:37:54;24.80;54.61
69543;SHT31;56762;49.494;11.768;2022-07-23T08:40:23;24.79;54.41
69543;SHT31;56762;49.494;11.768;2022-07-23T08:42:53;24.86;54.22
69543;SHT31;56762;49.494;11.768;2022-07-23T08:45:23;24.99;53.93
69543;SHT31;56762;49.494;11.768;2022-07-23T08:47:54;25.14;53.50
69543;SHT31;56762;49.494;11.768;2022-07-23T08:50:23;25.31;53.28
69543;SHT31;56762;49.494;11.768;2022-07-23T08:52:53;25.45;53.23
69543;SHT31;56762;49.494;11.768;2022-07-23T08:55:23;25.52;53.51
69543;SHT31;56762;49.494;11.768;2022-07-23T08:57:53;25.48;53.22
69543;SHT31;56762;49.494;11.768;2022-07-23T09:00:22;25.48;53.05
69543;SHT31;56762;49.494;11.768;2022-07-23T09:02:50;25.48;52.38
69543;SHT31;56762;49.494;11.768;2022-07-23T09:05:20;25.47;53.06
69543;SHT31;56762;49.494;11.768;2022-07-23T09:08:13;25.48;53.10
69543;SHT31;56762;49.494;11.768;2022-07-23T09:10:49;25.48;53.34
69543;SHT31;56762;49.494;11.768;2022-07-23T09:13:33;25.52;53.61
69543;SHT31;56762;49.494;11.768;2022-07-23T09:16:04;25.59;53.06
69543;SHT31;56762;49.494;11.768;2022-07-23T09:18:36;25.72;52.15
69543;SHT31;56762;49.494;11.768;2022-07-23T09:21:07;25.75;51.95
69543;SHT31;56762;49.494;11.768;2022-07-23T09:23:40;25.57;52.82
69543;SHT31;56762;49.494;11.768;2022-07-23T09:26:26;25.31;53.45
69543;SHT31;56762;49.494;11.768;2022-07-23T09:29:04;25.14;53.45
69543;SHT31;56762;49.494;11.768;2022-07-23T09:31:41;24.96;54.03
69543;SHT31;56762;49.494;11.768;2022-07-23T09:34:13;24.77;54.79
69543;SHT31;56762;49.494;11.768;2022-07-23T09:36:41;24.59;55.20
69543;SHT31;56762;49.494;11.768;2022-07-23T09:39:11;24.42;54.99
69543;SHT31;56762;49.494;11.768;2022-07-23T09:41:41;24.25;53.95
69543;SHT31;56762;49.494;11.768;2022-07-23T09:44:14;24.08;54.91
69543;SHT31;56762;49.494;11.768;2022-07-23T09:46:45;23.91;55.83
69543;SHT31;56762;49.494;11.768;2022-07-23T09:49:18;23.77;55.89
69543;SHT31;56762;49.494;11.768;2022-07-23T09:51:52;23.70;55.19
69543;SHT31;56762;49.494;11.768;2022-07-23T09:54:25;23.66;55.61
69543;SHT31;56762;49.494;11.768;2022-07-23T09:56:54;23.64;55.83
69543;SHT31;56762;49.494;11.768;2022-07-23T09:59:27;23.63;57.01
69543;SHT31;56762;49.494;11.768;2022-07-23T10:01:56;23.39;58.23
69543;SHT31;56762;49.494;11.768;2022-07-23T10:04:27;23.19;60.59
69543;SHT31;56762;49.494;11.768;2022-07-23T10:06:59;23.06;64.97
69543;SHT31;56762;49.494;11.768;2022-07-23T10:09:28;22.92;65.22
69543;SHT31;56762;49.494;11.768;2022-07-23T10:11:58;22.79;65.62
69543;SHT31;56762;49.494;11.768;2022-07-23T10:14:42;22.71;64.52
69543;SHT31;56762;49.494;11.768;2022-07-23T10:17:14;22.58;64.79
69543;SHT31;56762;49.494;11.768;2022-07-23T10:19:43;22.47;63.55
69543;SHT31;56762;49.494;11.768;2022-07-23T10:22:14;22.38;63.53
69543;SHT31;56762;49.494;11.768;2022-07-23T10:24:51;22.24;63.16
69543;SHT31;56762;49.494;11.768;2022-07-23T10:27:34;22.10;64.37
69543;SHT31;56762;49.494;11.768;2022-07-23T10:30:13;22.03;65.79
69543;SHT31;56762;49.494;11.768;2022-07-23T10:32:53;21.89;66.82
69543;SHT31;56762;49.494;11.768;2022-07-23T10:35:33;21.78;66.38
69543;SHT31;56762;49.494;11.768;2022-07-23T10:38:11;21.62;68.20
69543;SHT31;56762;49.494;11.768;2022-07-23T10:40:56;21.45;70.26
69543;SHT31;56762;49.494;11.768;2022-07-23T10:43:25;21.31;71.54
69543;SHT31;56762;49.494;11.768;2022-07-23T10:46:21;21.19;72.03
69543;SHT31;56762;49.494;11.768;2022-07-23T10:49:25;21.12;72.14
69543;SHT31;56762;49.494;11.768;2022-07-23T10:52:21;21.14;73.22
69543;SHT31;56762;49.494;11.768;2022-07-23T10:54:51;21.05;74.40
69543;SHT31;56762;49.494;11.768;2022-07-23T10:57:21;21.10;73.38
69543;SHT31;56762;49.494;11.768;2022-07-23T11:00:13;21.11;73.35
69543;SHT31;56762;49.494;11.768;2022-07-23T11:02:44;21.12;73.01
69543;SHT31;56762;49.494;11.768;2022-07-23T11:05:14;21.18;72.90
69543;SHT31;56762;49.494;11.768;2022-07-23T11:08:14;21.21;71.35
69543;SHT31;56762;49.494;11.768;2022-07-23T11:10:48;21.22;71.64
69543;SHT31;56762;49.494;11.768;2022-07-23T11:13:30;21.25;70.12
69543;SHT31;56762;49.494;11.768;2022-07-23T11:16:22;21.24;70.03
69543;SHT31;56762;49.494;11.768;2022-07-23T11:19:05;21.22;70.48
69543;SHT31;56762;49.494;11.768;2022-07-23T11:21:49;21.19;69.78
69543;SHT31;56762;49.494;11.768;2022-07-23T11:24:23;21.19;69.58
69543;SHT31;56762;49.494;11.768;2022-07-23T11:27:00;21.21;69.58
69543;SHT31;56762;49.494;11.768;2022-07-23T11:29:42;21.22;70.14
69543;SHT31;56762;49.494;11.768;2022-07-23T11:35:21;21.35;69.53
69543;SHT31;56762;49.494;11.768;2022-07-23T11:37:51;21.37;69.93
69543;SHT31;56762;49.494;11.768;2022-07-23T11:40:25;21.41;68.81
69543;SHT31;56762;49.494;11.768;2022-07-23T11:42:59;21.46;68.40
69543;SHT31;56762;49.494;11.768;2022-07-23T11:45:32;21.45;68.74
69543;SHT31;56762;49.494;11.768;2022-07-23T11:48:01;21.50;69.08
69543;SHT31;56762;49.494;11.768;2022-07-23T11:50:31;21.58;69.33
69543;SHT31;56762;49.494;11.768;2022-07-23T11:53:00;21.69;69.51
69543;SHT31;56762;49.494;11.768;2022-07-23T11:55:28;21.73;68.38
69543;SHT31;56762;49.494;11.768;2022-07-23T11:57:56;21.78;71.78
69543;SHT31;56762;49.494;11.768;2022-07-23T12:00:28;21.83;70.09
69543;SHT31;56762;49.494;11.768;2022-07-23T12:02:58;21.88;71.21
69543;SHT31;56762;49.494;11.768;2022-07-23T12:05:31;21.92;71.77
69543;SHT31;56762;49.494;11.768;2022-07-23T12:08:00;21.94;72.00
69543;SHT31;56762;49.494;11.768;2022-07-23T12:10:29;22.00;71.39
69543;SHT31;56762;49.494;11.768;2022-07-23T12:13:00;22.06;72.72
69543;SHT31;56762;49.494;11.768;2022-07-23T12:15:29;22.14;72.23
69543;SHT31;56762;49.494;11.768;2022-07-23T12:18:00;22.14;70.42
69543;SHT31;56762;49.494;11.768;2022-07-23T12:20:32;22.18;71.83
69543;SHT31;56762;49.494;11.768;2022-07-23T12:23:03;22.25;68.93
69543;SHT31;56762;49.494;11.768;2022-07-23T12:25:33;22.31;69.21
69543;SHT31;56762;49.494;11.768;2022-07-23T12:28:04;22.36;67.80
69543;SHT31;56762;49.494;11.768;2022-07-23T12:30:38;22.48;67.99
69543;SHT31;56762;49.494;11.768;2022-07-23T12:33:07;22.62;66.67
69543;SHT31;56762;49.494;11.768;2022-07-23T12:35:38;22.76;64.27
69543;SHT31;56762;49.494;11.768;2022-07-23T12:38:09;22.79;65.06
69543;SHT31;56762;49.494;11.768;2022-07-23T12:40:42;22.91;61.99
69543;SHT31;56762;49.494;11.768;2022-07-23T12:43:19;23.02;60.58
69543;SHT31;56762;49.494;11.768;2022-07-23T12:45:48;23.05;58.91
69543;SHT31;56762;49.494;11.768;2022-07-23T12:48:27;23.15;58.01
69543;SHT31;56762;49.494;11.768;2022-07-23T12:50:58;23.29;57.62
69543;SHT31;56762;49.494;11.768;2022-07-23T12:53:29;23.33;56.64
69543;SHT31;56762;49.494;11.768;2022-07-23T12:56:01;23.39;56.41
69543;SHT31;56762;49.494;11.768;2022-07-23T12:58:42;23.46;55.57
69543;SHT31;56762;49.494;11.768;2022-07-23T13:01:22;23.60;55.15
69543;SHT31;56762;49.494;11.768;2022-07-23T13:03:57;23.69;54.86
69543;SHT31;56762;49.494;11.768;2022-07-23T13:06:27;23.78;54.06
69543;SHT31;56762;49.494;11.768;2022-07-23T13:08:57;23.87;53.80
69543;SHT31;56762;49.494;11.768;2022-07-23T13:11:25;23.98;54.26
69543;SHT31;56762;49.494;11.768;2022-07-23T13:13:52;24.07;54.26
69543;SHT31;56762;49.494;11.768;2022-07-23T13:16:21;24.15;53.71
69543;SHT31;56762;49.494;11.768;2022-07-23T13:18:49;24.15;54.38
69543;SHT31;56762;49.494;11.768;2022-07-23T13:21:17;24.35;54.04
69543;SHT31;56762;49.494;11.768;2022-07-23T13:23:49;24.43;52.94
69543;SHT31;56762;49.494;11.768;2022-07-23T13:26:17;24.55;52.37
69543;SHT31;56762;49.494;11.768;2022-07-23T13:28:46;24.51;52.88
69543;SHT31;56762;49.494;11.768;2022-07-23T13:31:14;24.51;52.17
69543;SHT31;56762;49.494;11.768;2022-07-23T13:33:41;24.45;53.10
69543;SHT31;56762;49.494;11.768;2022-07-23T13:36:10;24.56;52.25
69543;SHT31;56762;49.494;11.768;2022-07-23T13:38:39;24.59;52.03
69543;SHT31;56762;49.494;11.768;2022-07-23T13:41:08;24.60;52.30
69543;SHT31;56762;49.494;11.768;2022-07-23T13:43:38;24.70;50.02
69543;SHT31;56762;49.494;11.768;2022-07-23T13:46:06;24.76;51.21
69543;SHT31;56762;49.494;11.768;2022-07-23T13:48:34;24.80;51.48
69543;SHT31;56762;49.494;11.768;2022-07-23T13:51:03;24.87;50.49
69543;SHT31;56762;49.494;11.768;2022-07-23T13:53:31;24.87;51.11
69543;SHT31;56762;49.494;11.768;2022-07-23T13:55:59;24.87;51.84
69543;SHT31;56762;49.494;11.768;2022-07-23T13:58:28;24.94;49.84
69543;SHT31;56762;49.494;11.768;2022-07-23T14:00:58;24.94;50.20
69543;SHT31;56762;49.494;11.768;2022-07-23T14:03:26;24.93;50.64
69543;SHT31;56762;49.494;11.768;2022-07-23T14:05:54;25.00;50.56
69543;SHT31;56762;49.494;11.768;2022-07-23T14:08:23;25.06;51.01
69543;SHT31;56762;49.494;11.768;2022-07-23T14:10:51;25.18;50.94
69543;SHT31;56762;49.494;11.768;2022-07-23T14:13:18;25.21;50.94
69543;SHT31;56762;49.494;11.768;2022-07-23T14:15:48;25.27;50.05
69543;SHT31;56762;49.494;11.768;2022-07-23T14:18:22;25.27;50.85
69543;SHT31;56762;49.494;11.768;2022-07-23T14:20:50;25.33;50.92
69543;SHT31;56762;49.494;11.768;2022-07-23T14:23:18;25.30;51.18
69543;SHT31;56762;49.494;11.768;2022-07-23T14:25:46;25.28;51.33
69543;SHT31;56762;49.494;11.768;2022-07-23T14:28:14;25.34;50.93
69543;SHT31;56762;49.494;11.768;2022-07-23T14:30:42;25.30;51.79
69543;SHT31;56762;49.494;11.768;2022-07-23T14:33:11;25.24;52.40
69543;SHT31;56762;49.494;11.768;2022-07-23T14:35:43;25.34;51.84
69543;SHT31;56762;49.494;11.768;2022-07-23T14:38:11;25.42;51.85
69543;SHT31;56762;49.494;11.768;2022-07-23T14:40:39;25.42;52.32
69543;SHT31;56762;49.494;11.768;2022-07-23T14:43:07;25.51;52.50
69543;SHT31;56762;49.494;11.768;2022-07-23T14:45:37;25.68;52.48
69543;SHT31;56762;49.494;11.768;2022-07-23T14:48:06;25.72;52.10
69543;SHT31;56762;49.494;11.768;2022-07-23T14:50:36;25.68;52.65
69543;SHT31;56762;49.494;11.768;2022-07-23T14:53:04;25.75;51.61
69543;SHT31;56762;49.494;11.768;2022-07-23T14:55:34;25.65;52.36
69543;SHT31;56762;49.494;11.768;2022-07-23T14:58:03;25.75;51.92
69543;SHT31;56762;49.494;11.768;2022-07-23T15:00:33;25.65;52.54
69543;SHT31;56762;49.494;11.768;2022-07-23T15:03:01;25.69;52.56
69543;SHT31;56762;49.494;11.768;2022-07-23T15:05:29;25.77;52.09
69543;SHT31;56762;49.494;11.768;2022-07-23T15:07:59;25.74;52.77
69543;SHT31;56762;49.494;11.768;2022-07-23T15:10:27;25.75;52.62
69543;SHT31;56762;49.494;11.768;2022-07-23T15:12:56;25.64;53.41
69543;SHT31;56762;49.494;11.768;2022-07-23T15:15:24;25.67;53.06
69543;SHT31;56762;49.494;11.768;2022-07-23T15:17:52;25.58;53.28
69543;SHT31;56762;49.494;11.768;2022-07-23T15:20:20;25.57;53.53
69543;SHT31;56762;49.494;11.768;2022-07-23T15:23:05;25.55;53.20
69543;SHT31;56762;49.494;11.768;2022-07-23T15:25:33;25.67;52.65
69543;SHT31;56762;49.494;11.768;2022-07-23T15:28:02;25.62;53.22
69543;SHT31;56762;49.494;11.768;2022-07-23T15:30:33;25.58;53.67
69543;SHT31;56762;49.494;11.768;2022-07-23T15:33:05;25.68;52.78
69543;SHT31;56762;49.494;11.768;2022-07-23T15:35:45;25.65;53.36
69543;SHT31;56762;49.494;11.768;2022-07-23T15:38:14;25.67;53.14